Time;durP1;ratioP1;P1;durP2;ratioP2;P2;SDS_P1;SDS_P2;PMS_P1;PMS_P2;Temp;Humidity;BMP_temperature;BMP_pressure;BME280_temperature;BME280_humidity;BME280_pressure;Samples;Min_cycle;Max_cycle;Signal;HPM_P1;HPM_P2
2021/07/12 00:00:25;;;;;;;19.17;13.15;;;19.80;99.90;;;;;;1855356;76;21091;-71
2021/07/12 00:02:54;;;;;;;19.40;13.45;;;19.90;99.90;;;;;;1856606;76;21541;-70
2021/07/12 00:05:23;;;;;;;19.40;14.03;;;19.80;99.90;;;;;;1855005;76;21125;-70
2021/07/12 00:07:51;;;;;;;18.90;14.18;;;19.90;99.90;;;;;;1856157;77;21051;-70
2021/07/12 00:10:22;;;;;;;16.48;13.40;;;19.90;99.90;;;;;;1856157;77;21084;-70
2021/07/12 00:12:51;;;;;;;16.30;13.72;;;19.90;99.90;;;;;;1864106;76;21055;-70
2021/07/12 00:15:21;;;;;;;21.60;14.80;;;19.90;99.90;;;;;;1878810;76;21452;-71
2021/07/12 00:17:49;;;;;;;16.62;14.13;;;19.90;99.90;;;;;;1876010;76;21573;-70
2021/07/12 00:20:17;;;;;;;19.77;14.78;;;19.90;99.90;;;;;;1855019;76;21222;-70
2021/07/12 00:22:46;;;;;;;19.98;15.25;;;19.90;99.90;;;;;;1849969;76;21084;-71
2021/07/12 00:25:14;;;;;;;21.68;15.10;;;19.90;99.90;;;;;;1854561;77;21564;-69
2021/07/12 00:27:42;;;;;;;23.95;14.47;;;19.90;99.90;;;;;;1856309;76;21111;-69
2021/07/12 00:30:13;;;;;;;23.60;14.10;;;19.80;99.90;;;;;;1854800;77;21144;-69
2021/07/12 00:32:41;;;;;;;17.98;13.93;;;19.80;99.90;;;;;;1854281;76;21119;-70
2021/07/12 00:35:11;;;;;;;21.82;14.00;;;19.80;99.90;;;;;;1855845;76;21114;-70
2021/07/12 00:37:39;;;;;;;17.80;14.70;;;19.70;99.90;;;;;;1855865;76;21087;-70
2021/07/12 00:40:08;;;;;;;20.80;15.15;;;19.90;99.90;;;;;;1868257;76;21232;-71
2021/07/12 00:42:36;;;;;;;20.77;14.70;;;19.90;99.90;;;;;;1886107;76;21032;-68
2021/07/12 00:45:07;;;;;;;22.32;14.53;;;19.90;99.90;;;;;;1862411;76;21068;-68
2021/07/12 00:47:34;;;;;;;23.52;13.83;;;19.70;99.90;;;;;;1855410;76;21568;-70
2021/07/12 00:50:04;;;;;;;18.17;14.45;;;19.70;99.90;;;;;;1859163;76;21585;-68
2021/07/12 00:52:31;;;;;;;19.67;15.05;;;19.70;99.90;;;;;;1849907;77;21522;-70
2021/07/12 00:54:59;;;;;;;18.37;14.83;;;19.80;99.90;;;;;;1854855;76;21103;-69
2021/07/12 00:57:26;;;;;;;20.32;15.38;;;19.80;99.90;;;;;;1884543;76;21096;-70
2021/07/12 00:59:55;;;;;;;18.17;14.30;;;19.70;99.90;;;;;;1859750;76;21064;-69
2021/07/12 01:02:22;;;;;;;20.77;14.80;;;19.70;99.90;;;;;;1861668;76;22105;-69
2021/07/12 01:04:50;;;;;;;20.02;15.15;;;19.70;99.90;;;;;;1864899;76;21494;-70
2021/07/12 01:07:18;;;;;;;16.82;15.13;;;19.70;99.90;;;;;;1885548;76;21079;-71
2021/07/12 01:09:46;;;;;;;20.43;15.03;;;19.70;99.90;;;;;;1875121;76;21099;-71
2021/07/12 01:12:32;;;;;;;21.23;14.60;;;19.70;99.90;;;;;;1856802;76;21106;-71
2021/07/12 01:15:05;;;;;;;16.60;14.83;;;19.70;99.90;;;;;;1867042;76;21175;-70
2021/07/12 01:17:45;;;;;;;23.00;15.65;;;19.70;99.90;;;;;;1876075;76;21044;-71
2021/07/12 01:20:35;;;;;;;20.62;15.20;;;19.70;99.90;;;;;;1853693;77;21158;-71
2021/07/12 01:23:32;;;;;;;21.60;15.38;;;19.70;99.90;;;;;;1849442;76;21140;-69
2021/07/12 01:26:14;;;;;;;18.80;15.30;;;19.60;99.90;;;;;;1861217;76;21099;-70
2021/07/12 01:28:57;;;;;;;18.32;15.72;;;19.70;99.90;;;;;;1826927;76;21202;-70
2021/07/12 01:31:53;;;;;;;20.85;14.43;;;19.60;99.90;;;;;;1887554;76;21114;-70
2021/07/12 01:34:45;;;;;;;19.32;15.43;;;19.50;99.90;;;;;;1875306;76;21134;-69
2021/07/12 01:37:25;;;;;;;21.65;16.20;;;19.60;99.90;;;;;;1812036;76;21137;-69
2021/07/12 01:40:17;;;;;;;19.90;15.13;;;19.40;99.90;;;;;;1852731;76;21174;-69
2021/07/12 01:42:56;;;;;;;19.10;14.47;;;19.40;99.90;;;;;;1829098;76;21184;-69
2021/07/12 01:45:25;;;;;;;21.23;16.12;;;19.30;99.90;;;;;;1847709;76;21204;-69
2021/07/12 01:48:14;;;;;;;16.10;14.50;;;19.30;99.90;;;;;;1862707;76;21177;-69
2021/07/12 01:51:00;;;;;;;20.10;15.60;;;19.30;99.90;;;;;;1852221;76;21522;-70
2021/07/12 01:53:51;;;;;;;17.90;15.15;;;19.30;99.90;;;;;;1858339;76;21552;-70
2021/07/12 01:56:36;;;;;;;15.45;13.90;;;19.20;99.90;;;;;;1855805;76;21205;-68
2021/07/12 01:59:13;;;;;;;17.85;13.62;;;19.10;99.90;;;;;;1855396;76;21127;-68
2021/07/12 02:01:43;;;;;;;17.82;15.30;;;19.20;99.90;;;;;;1800933;77;21673;-68
2021/07/12 02:04:13;;;;;;;21.40;14.03;;;19.10;99.90;;;;;;1854268;76;21212;-69
2021/07/12 02:06:42;;;;;;;15.95;12.47;;;19.20;99.90;;;;;;1869829;76;21088;-69
2021/07/12 02:09:12;;;;;;;15.53;13.53;;;19.00;99.90;;;;;;1873841;76;21151;-70
2021/07/12 02:11:45;;;;;;;15.65;12.63;;;19.10;99.90;;;;;;1855971;76;21240;-69
2021/07/12 02:14:16;;;;;;;17.90;13.50;;;19.10;99.90;;;;;;1855118;76;21111;-68
2021/07/12 02:16:45;;;;;;;15.32;12.82;;;19.00;99.90;;;;;;1854247;77;21189;-69
2021/07/12 02:19:15;;;;;;;20.65;14.40;;;19.10;99.90;;;;;;1867113;76;21098;-69
2021/07/12 02:21:43;;;;;;;15.98;13.53;;;19.00;99.90;;;;;;1855389;76;21142;-69
2021/07/12 02:24:13;;;;;;;17.60;13.85;;;19.00;99.90;;;;;;1873615;76;21109;-74
2021/07/12 02:26:42;;;;;;;21.75;14.18;;;18.80;99.90;;;;;;1894184;76;21153;-70
2021/07/12 02:29:10;;;;;;;18.80;14.43;;;18.90;99.90;;;;;;1886685;76;21126;-69
2021/07/12 02:31:39;;;;;;;16.70;13.80;;;18.80;99.90;;;;;;1887848;76;21102;-70
2021/07/12 02:34:08;;;;;;;18.52;13.03;;;18.80;99.90;;;;;;1883081;75;21032;-69
2021/07/12 02:36:37;;;;;;;14.15;12.45;;;18.80;99.90;;;;;;1882500;76;21059;-70
2021/07/12 02:39:07;;;;;;;15.55;13.90;;;18.80;99.90;;;;;;1868774;76;21068;-70
2021/07/12 02:41:36;;;;;;;15.63;11.97;;;18.80;99.90;;;;;;1834395;76;21154;-70
2021/07/12 02:44:05;;;;;;;14.65;12.10;;;18.70;99.90;;;;;;1861311;76;21607;-69
2021/07/12 02:46:33;;;;;;;22.80;13.58;;;18.80;99.90;;;;;;1885879;76;21107;-69
2021/07/12 02:49:02;;;;;;;16.17;13.15;;;18.80;99.90;;;;;;1873593;76;21740;-69
2021/07/12 02:51:35;;;;;;;14.85;12.40;;;18.70;99.90;;;;;;1876368;75;21179;-70
2021/07/12 02:54:05;;;;;;;19.02;13.22;;;18.70;99.90;;;;;;1864144;76;22099;-69
2021/07/12 02:56:33;;;;;;;17.92;11.57;;;18.70;99.90;;;;;;1870095;76;21609;-70
2021/07/12 02:59:00;;;;;;;11.60;10.38;;;18.70;99.90;;;;;;1885807;76;21306;-70
2021/07/12 03:01:28;;;;;;;18.82;14.53;;;18.70;99.90;;;;;;1886658;75;21666;-70
2021/07/12 03:03:55;;;;;;;20.85;14.07;;;18.70;99.90;;;;;;1861835;76;21085;-71
2021/07/12 03:06:31;;;;;;;15.88;12.95;;;18.60;99.90;;;;;;1855625;76;21612;-70
2021/07/12 03:09:07;;;;;;;19.10;13.20;;;18.60;99.90;;;;;;1855960;76;21113;-70
2021/07/12 03:11:54;;;;;;;17.07;13.53;;;18.50;99.90;;;;;;1877664;76;21114;-70
2021/07/12 03:14:45;;;;;;;26.10;14.20;;;18.50;99.90;;;;;;1866686;76;21095;-69
2021/07/12 03:17:16;;;;;;;15.70;12.53;;;18.50;99.90;;;;;;1862857;76;21189;-69
2021/07/12 03:19:47;;;;;;;19.52;13.60;;;18.50;99.90;;;;;;1867660;71;21096;-74
2021/07/12 03:22:17;;;;;;;15.63;13.97;;;18.50;99.90;;;;;;1922982;74;21128;-73
2021/07/12 03:24:45;;;;;;;17.90;13.35;;;18.50;99.90;;;;;;1929915;73;21109;-73
2021/07/12 03:27:16;;;;;;;17.52;13.50;;;18.50;99.90;;;;;;1922833;74;21575;-73
2021/07/12 03:29:45;;;;;;;18.70;13.68;;;18.40;99.90;;;;;;1929447;73;21521;-73
2021/07/12 03:32:14;;;;;;;19.35;14.35;;;18.50;99.90;;;;;;1950267;73;21135;-74
2021/07/12 03:34:42;;;;;;;16.15;13.68;;;18.40;99.90;;;;;;1944174;72;21065;-73
2021/07/12 03:37:10;;;;;;;16.70;13.28;;;18.50;99.90;;;;;;1918876;72;21045;-73
2021/07/12 03:39:38;;;;;;;17.52;13.60;;;18.50;99.90;;;;;;1905961;73;21606;-73
2021/07/12 03:42:06;;;;;;;21.77;15.40;;;18.50;99.90;;;;;;1924119;73;21528;-73
2021/07/12 03:44:33;;;;;;;19.82;14.83;;;18.50;99.90;;;;;;1920462;73;21030;-73
2021/07/12 03:47:01;;;;;;;15.38;13.13;;;18.40;99.90;;;;;;1933289;72;21088;-73
2021/07/12 03:49:28;;;;;;;21.40;13.68;;;18.40;99.90;;;;;;1924955;72;21075;-73
2021/07/12 03:51:56;;;;;;;20.40;14.85;;;18.40;99.90;;;;;;1923271;74;21081;-73
2021/07/12 03:54:24;;;;;;;15.23;13.68;;;18.50;99.90;;;;;;1927561;74;21104;-73
2021/07/12 03:56:51;;;;;;;18.05;14.13;;;18.50;99.90;;;;;;1908191;72;21081;-73
2021/07/12 03:59:19;;;;;;;15.45;14.05;;;18.50;99.90;;;;;;1909911;72;21098;-73
2021/07/12 04:01:46;;;;;;;16.87;13.32;;;18.50;99.90;;;;;;1915089;72;21046;-74
2021/07/12 04:04:14;;;;;;;16.67;14.05;;;18.50;99.90;;;;;;1904229;73;21065;-74
2021/07/12 04:06:41;;;;;;;18.12;14.07;;;18.50;99.90;;;;;;1896622;72;21083;-74
2021/07/12 04:09:09;;;;;;;16.10;14.40;;;18.50;99.90;;;;;;1909307;72;21655;-73
2021/07/12 04:11:36;;;;;;;17.35;14.38;;;18.50;99.90;;;;;;1926667;72;21074;-74
2021/07/12 04:14:05;;;;;;;17.12;15.13;;;18.50;99.90;;;;;;1916340;73;21117;-74
2021/07/12 04:16:32;;;;;;;19.75;14.47;;;18.50;99.90;;;;;;1883294;73;21086;-73
2021/07/12 04:19:00;;;;;;;17.82;14.73;;;18.50;99.90;;;;;;1888143;74;21223;-73
2021/07/12 04:21:27;;;;;;;18.65;14.78;;;18.50;99.90;;;;;;1886497;76;21652;-72
2021/07/12 04:23:55;;;;;;;19.87;16.05;;;18.50;99.90;;;;;;1920592;74;21049;-72
2021/07/12 04:26:22;;;;;;;25.32;15.85;;;18.50;99.90;;;;;;1921231;74;21048;-73
2021/07/12 04:28:49;;;;;;;18.30;16.40;;;18.50;99.90;;;;;;1894008;73;21559;-73
2021/07/12 04:31:17;;;;;;;17.67;15.88;;;18.50;99.90;;;;;;1887077;75;21117;-74
2021/07/12 04:33:44;;;;;;;18.60;15.70;;;18.50;99.90;;;;;;1910341;75;21034;-74
2021/07/12 04:36:13;;;;;;;22.02;15.43;;;18.60;99.90;;;;;;1910883;75;21558;-75
2021/07/12 04:38:40;;;;;;;18.80;15.78;;;18.60;99.90;;;;;;1890057;74;21067;-74
2021/07/12 04:41:08;;;;;;;17.05;15.32;;;18.70;99.90;;;;;;1912890;74;21117;-72
2021/07/12 04:43:35;;;;;;;17.10;15.35;;;18.70;99.90;;;;;;1924165;72;21054;-74
2021/07/12 04:46:03;;;;;;;16.97;15.18;;;18.70;99.90;;;;;;1908576;75;21032;-73
2021/07/12 04:48:30;;;;;;;19.25;15.85;;;18.70;99.90;;;;;;1899914;72;21396;-73
2021/07/12 04:50:58;;;;;;;17.73;15.40;;;18.70;99.90;;;;;;1929051;72;21115;-73
2021/07/12 04:53:25;;;;;;;16.90;14.63;;;18.70;99.90;;;;;;1908526;74;21154;-73
2021/07/12 04:55:53;;;;;;;18.37;16.48;;;18.70;99.90;;;;;;1937891;74;21027;-73
2021/07/12 04:58:20;;;;;;;18.35;16.45;;;18.70;99.90;;;;;;1908526;72;21062;-74
2021/07/12 05:00:49;;;;;;;18.92;16.70;;;18.70;99.90;;;;;;1907849;72;21153;-75
2021/07/12 05:03:19;;;;;;;20.08;16.37;;;18.70;99.90;;;;;;1908183;75;21513;-75
2021/07/12 05:05:47;;;;;;;18.23;16.42;;;18.70;99.90;;;;;;1911382;72;21576;-72
2021/07/12 05:08:14;;;;;;;18.37;16.57;;;18.80;99.90;;;;;;1920734;72;21047;-72
2021/07/12 05:10:42;;;;;;;19.67;16.57;;;18.80;99.90;;;;;;1904294;72;21112;-72
2021/07/12 05:13:10;;;;;;;21.82;17.30;;;18.90;99.90;;;;;;1928347;72;21476;-74
2021/07/12 05:15:38;;;;;;;23.02;18.55;;;19.00;99.90;;;;;;1891806;74;21090;-74
2021/07/12 05:18:06;;;;;;;23.57;18.37;;;19.00;99.90;;;;;;1910525;74;21090;-74
2021/07/12 05:20:34;;;;;;;24.18;18.35;;;19.00;99.90;;;;;;1871626;76;21128;-74
2021/07/12 05:23:02;;;;;;;22.55;18.87;;;19.00;99.90;;;;;;1908852;74;21677;-74
2021/07/12 05:25:30;;;;;;;20.48;17.80;;;19.10;99.90;;;;;;1909557;75;21696;-74
2021/07/12 05:27:57;;;;;;;21.75;19.32;;;19.10;99.90;;;;;;1887766;74;21515;-74
2021/07/12 05:30:25;;;;;;;21.23;19.02;;;19.20;99.90;;;;;;1913541;73;21116;-73
2021/07/12 05:32:52;;;;;;;25.82;20.25;;;19.30;99.90;;;;;;1913958;75;21519;-73
2021/07/12 05:35:20;;;;;;;24.27;20.55;;;19.40;99.90;;;;;;1913671;73;21520;-73
2021/07/12 05:37:47;;;;;;;28.57;20.08;;;19.50;99.90;;;;;;1913563;73;21050;-73
2021/07/12 05:40:15;;;;;;;23.22;19.60;;;19.40;99.90;;;;;;1913051;74;21075;-72
2021/07/12 05:42:43;;;;;;;25.40;21.37;;;19.40;99.90;;;;;;1912246;73;21136;-73
2021/07/12 05:45:11;;;;;;;28.12;19.90;;;19.40;99.90;;;;;;1913678;74;21093;-74
2021/07/12 05:47:38;;;;;;;25.05;21.17;;;19.50;99.90;;;;;;1912663;73;21089;-70
2021/07/12 05:50:07;;;;;;;31.48;22.40;;;19.50;99.90;;;;;;1913448;73;21556;-72
2021/07/12 05:52:36;;;;;;;23.98;20.30;;;19.50;99.90;;;;;;1905574;74;21128;-72
2021/07/12 05:55:05;;;;;;;33.80;21.93;;;19.50;99.90;;;;;;1909667;73;21132;-73
2021/07/12 05:57:32;;;;;;;31.62;22.35;;;19.70;99.90;;;;;;1913132;73;21069;-72
2021/07/12 06:00:00;;;;;;;30.10;23.50;;;19.70;99.90;;;;;;1913518;73;21114;-72
2021/07/12 06:02:27;;;;;;;27.95;21.85;;;19.70;99.90;;;;;;1921676;73;21023;-77
2021/07/12 06:04:55;;;;;;;29.50;22.82;;;19.80;99.90;;;;;;1889519;73;21094;-73
2021/07/12 06:07:22;;;;;;;31.07;21.75;;;19.80;99.90;;;;;;1874557;75;21170;-74
2021/07/12 06:09:50;;;;;;;33.65;23.77;;;19.80;99.90;;;;;;1889197;74;21070;-73
2021/07/12 06:12:17;;;;;;;27.67;24.18;;;19.90;99.90;;;;;;1938556;73;21031;-74
2021/07/12 06:14:45;;;;;;;35.63;24.50;;;20.00;99.90;;;;;;1922551;72;21074;-74
2021/07/12 06:17:12;;;;;;;28.50;23.18;;;20.10;99.90;;;;;;1919014;73;21460;-72
2021/07/12 06:19:40;;;;;;;31.40;23.75;;;20.10;99.90;;;;;;1929116;74;21199;-72
2021/07/12 06:22:07;;;;;;;33.08;25.77;;;20.10;99.90;;;;;;1947601;73;21000;-74
2021/07/12 06:24:35;;;;;;;34.85;24.80;;;20.20;99.90;;;;;;1936450;73;21066;-75
2021/07/12 06:27:03;;;;;;;29.42;24.52;;;20.20;99.90;;;;;;1935720;72;21365;-75
2021/07/12 06:29:30;;;;;;;32.55;24.37;;;20.20;99.90;;;;;;1944520;71;21262;-72
2021/07/12 06:31:58;;;;;;;29.02;22.67;;;20.30;99.90;;;;;;1923072;74;21071;-72
2021/07/12 06:34:26;;;;;;;26.27;23.50;;;20.40;99.90;;;;;;1881881;74;21187;-72
2021/07/12 06:36:53;;;;;;;24.40;21.50;;;20.40;99.90;;;;;;1884984;75;21148;-73
2021/07/12 06:39:21;;;;;;;26.95;23.55;;;20.50;99.90;;;;;;1906275;74;21098;-73
2021/07/12 06:41:48;;;;;;;26.90;23.18;;;20.60;99.90;;;;;;1937894;73;21054;-74
2021/07/12 06:44:16;;;;;;;30.30;24.15;;;20.70;99.90;;;;;;1934701;72;22228;-75
2021/07/12 06:46:43;;;;;;;31.60;23.83;;;20.70;99.90;;;;;;1924896;73;21090;-74
2021/07/12 06:49:11;;;;;;;30.23;23.67;;;20.80;99.90;;;;;;1924945;73;21081;-74
2021/07/12 06:51:38;;;;;;;31.48;23.47;;;20.80;99.90;;;;;;1925957;73;21083;-74
2021/07/12 06:54:07;;;;;;;32.33;23.45;;;20.80;99.90;;;;;;1922765;73;21106;-74
2021/07/12 06:56:35;;;;;;;28.80;22.07;;;20.90;99.90;;;;;;1934647;73;21110;-74
2021/07/12 06:59:03;;;;;;;28.32;21.68;;;20.90;99.90;;;;;;1932763;73;21089;-76
2021/07/12 07:01:30;;;;;;;25.90;21.55;;;20.90;99.90;;;;;;1872715;74;21082;-76
2021/07/12 07:03:58;;;;;;;26.80;22.52;;;20.90;99.90;;;;;;1907427;75;21085;-70
2021/07/12 07:06:25;;;;;;;24.63;21.73;;;21.00;99.90;;;;;;1888520;75;21399;-70
2021/07/12 07:08:53;;;;;;;28.50;22.10;;;21.10;99.90;;;;;;1885242;74;21542;-71
2021/07/12 07:11:20;;;;;;;27.65;21.97;;;21.10;99.90;;;;;;1893207;73;21211;-73
2021/07/12 07:13:48;;;;;;;27.00;20.92;;;21.20;99.90;;;;;;1905718;73;21180;-74
2021/07/12 07:16:16;;;;;;;26.97;19.92;;;21.10;99.90;;;;;;1895191;73;21179;-74
2021/07/12 07:18:43;;;;;;;27.30;20.37;;;21.20;99.90;;;;;;1894089;73;21136;-73
2021/07/12 07:21:11;;;;;;;25.75;20.27;;;21.10;99.90;;;;;;1926177;73;21179;-74
2021/07/12 07:23:39;;;;;;;26.15;20.27;;;21.10;99.90;;;;;;1883153;75;21127;-74
2021/07/12 07:26:07;;;;;;;22.17;19.87;;;21.20;99.90;;;;;;1902952;73;21113;-74
2021/07/12 07:28:34;;;;;;;27.22;20.15;;;21.10;99.90;;;;;;1887908;74;21595;-73
2021/07/12 07:31:21;;;;;;;29.02;21.48;;;21.20;99.90;;;;;;1887206;74;21685;-73
2021/07/12 07:33:49;;;;;;;25.50;20.10;;;21.20;99.90;;;;;;1886198;75;21088;-74
2021/07/12 07:36:17;;;;;;;24.20;20.70;;;21.20;99.90;;;;;;1914462;74;21159;-73
2021/07/12 07:38:46;;;;;;;24.63;20.25;;;21.40;99.90;;;;;;1883471;74;21089;-74
2021/07/12 07:41:13;;;;;;;23.20;19.32;;;21.40;99.90;;;;;;1908989;73;21161;-73
2021/07/12 07:43:41;;;;;;;28.12;18.77;;;21.40;99.90;;;;;;1888843;74;21202;-70
2021/07/12 07:46:08;;;;;;;22.82;20.20;;;21.40;99.90;;;;;;1884442;74;21633;-71
2021/07/12 07:48:36;;;;;;;20.08;17.30;;;21.50;99.90;;;;;;1922946;73;21111;-71
2021/07/12 07:51:03;;;;;;;23.62;18.05;;;21.50;99.90;;;;;;1930600;72;21362;-70
2021/07/12 07:53:31;;;;;;;25.90;19.95;;;21.50;99.90;;;;;;1883549;74;21089;-69
2021/07/12 07:55:58;;;;;;;25.17;19.57;;;21.40;99.90;;;;;;1869746;75;21148;-71
2021/07/12 07:58:26;;;;;;;22.55;18.95;;;21.50;99.90;;;;;;1876304;75;21068;-70
2021/07/12 08:00:53;;;;;;;21.12;17.87;;;21.50;99.90;;;;;;1902212;74;21178;-71
2021/07/12 08:03:21;;;;;;;21.68;17.95;;;21.50;99.90;;;;;;1882447;74;21178;-71
2021/07/12 08:05:48;;;;;;;25.50;16.80;;;21.60;99.90;;;;;;1913616;73;21206;-70
2021/07/12 08:08:16;;;;;;;20.95;16.30;;;21.50;99.90;;;;;;1879073;74;21129;-70
2021/07/12 08:10:43;;;;;;;21.95;16.40;;;21.60;99.90;;;;;;1905116;74;21207;-73
2021/07/12 08:13:12;;;;;;;19.98;16.70;;;21.60;99.90;;;;;;1889827;74;21097;-85
2021/07/12 08:15:40;;;;;;;19.30;16.30;;;21.80;99.90;;;;;;1920537;74;21890;-70
2021/07/12 08:18:09;;;;;;;19.80;16.52;;;21.80;99.90;;;;;;1928171;72;21425;-68
2021/07/12 08:20:37;;;;;;;22.15;17.00;;;21.80;99.90;;;;;;1927313;72;21134;-70
2021/07/12 08:23:05;;;;;;;20.32;15.98;;;21.90;99.90;;;;;;1935736;73;21007;-72
2021/07/12 08:25:32;;;;;;;18.27;15.15;;;21.80;99.90;;;;;;1930448;72;21023;-71
2021/07/12 08:28:00;;;;;;;21.75;15.13;;;21.80;99.90;;;;;;1932759;72;21097;-71
2021/07/12 08:30:27;;;;;;;22.25;15.48;;;21.90;99.90;;;;;;1901531;74;21230;-71
2021/07/12 08:32:55;;;;;;;17.05;14.87;;;21.90;99.90;;;;;;1910556;74;21645;-70
2021/07/12 08:35:23;;;;;;;19.65;14.38;;;21.90;99.90;;;;;;1888163;74;21038;-72
2021/07/12 08:37:50;;;;;;;16.65;14.05;;;22.00;99.90;;;;;;1922039;73;21101;-70
2021/07/12 08:40:21;;;;;;;13.20;11.43;;;22.00;99.90;;;;;;1927102;72;21101;-71
2021/07/12 08:42:52;;;;;;;12.05;10.03;;;22.10;99.90;;;;;;1935449;72;21094;-71
2021/07/12 08:45:19;;;;;;;14.78;10.78;;;22.20;99.90;;;;;;1934649;72;21087;-71
2021/07/12 08:47:47;;;;;;;13.22;11.97;;;22.30;99.90;;;;;;1920941;72;21121;-70
2021/07/12 08:50:15;;;;;;;16.12;11.85;;;22.30;99.90;;;;;;1932614;72;21559;-73
2021/07/12 08:52:47;;;;;;;10.53;9.45;;;22.40;99.90;;;;;;1928469;74;21128;-73
2021/07/12 08:55:15;;;;;;;8.80;6.92;;;22.40;99.90;;;;;;1921501;72;21628;-73
2021/07/12 08:57:57;;;;;;;9.90;7.10;;;22.40;99.90;;;;;;1924704;74;21463;-73
2021/07/12 09:00:39;;;;;;;9.23;7.40;;;22.40;99.90;;;;;;1925729;74;21161;-73
2021/07/12 09:03:23;;;;;;;9.85;7.70;;;22.40;99.90;;;;;;1919285;73;21091;-72
2021/07/12 09:06:00;;;;;;;10.82;6.92;;;22.50;99.90;;;;;;1900065;73;21133;-72
2021/07/12 09:08:54;;;;;;;9.45;7.10;;;22.50;99.90;;;;;;1926015;73;21098;-73
2021/07/12 09:11:38;;;;;;;7.47;6.50;;;22.60;99.90;;;;;;1918696;72;21635;-72
2021/07/12 09:14:09;;;;;;;11.45;8.25;;;22.80;99.90;;;;;;1921878;72;21210;-73
2021/07/12 09:16:42;;;;;;;11.75;8.20;;;22.90;99.90;;;;;;1920570;74;21226;-73
2021/07/12 09:19:24;;;;;;;12.43;7.55;;;22.90;99.90;;;;;;1921482;72;21086;-73
2021/07/12 09:21:58;;;;;;;10.55;7.00;;;23.00;99.90;;;;;;1915259;72;21082;-74
2021/07/12 09:24:31;;;;;;;8.85;7.40;;;23.00;99.90;;;;;;1924330;72;21191;-72
2021/07/12 09:27:05;;;;;;;9.23;7.90;;;22.90;99.90;;;;;;1918593;72;21023;-74
2021/07/12 09:29:38;;;;;;;7.78;6.97;;;23.00;99.90;;;;;;1920261;72;21114;-74
2021/07/12 09:32:09;;;;;;;9.65;7.00;;;23.00;99.90;;;;;;1916846;72;21090;-69
2021/07/12 09:34:37;;;;;;;10.28;7.42;;;23.10;99.90;;;;;;1921153;74;21118;-75
2021/07/12 09:37:07;;;;;;;9.68;7.72;;;23.20;99.90;;;;;;1921834;74;21207;-73
2021/07/12 09:39:37;;;;;;;8.20;6.90;;;23.20;99.90;;;;;;1930476;74;21125;-72
2021/07/12 09:42:07;;;;;;;10.40;7.40;;;23.00;99.90;;;;;;1917419;74;21116;-73
2021/07/12 09:44:37;;;;;;;9.50;7.25;;;23.00;99.90;;;;;;1917808;72;21129;-73
2021/07/12 09:47:08;;;;;;;11.85;8.03;;;23.10;99.90;;;;;;1918836;72;21203;-73
2021/07/12 09:49:36;;;;;;;11.12;8.18;;;23.10;99.90;;;;;;1924913;72;21192;-74
2021/07/12 09:52:06;;;;;;;11.60;7.78;;;23.20;99.90;;;;;;1920101;74;21595;-73
2021/07/12 09:54:37;;;;;;;7.67;6.78;;;23.10;99.90;;;;;;1919547;74;21066;-74
2021/07/12 09:57:07;;;;;;;11.22;8.08;;;23.20;99.90;;;;;;1911070;72;21113;-73
2021/07/12 09:59:36;;;;;;;13.30;8.25;;;23.20;99.90;;;;;;1921622;72;21157;-73
2021/07/12 10:02:05;;;;;;;14.25;8.38;;;23.30;99.90;;;;;;1921530;72;21619;-73
2021/07/12 10:04:32;;;;;;;10.00;8.63;;;23.30;99.90;;;;;;1921987;74;21160;-72
2021/07/12 10:07:00;;;;;;;10.38;7.95;;;23.30;99.90;;;;;;1915682;72;22025;-72
2021/07/12 10:09:28;;;;;;;11.75;7.00;;;23.20;99.90;;;;;;1920735;72;21093;-73
2021/07/12 10:11:56;;;;;;;9.68;7.00;;;23.30;99.90;;;;;;1916563;72;21548;-72
2021/07/12 10:14:25;;;;;;;8.30;7.20;;;23.20;99.90;;;;;;1918394;74;21134;-73
2021/07/12 10:16:53;;;;;;;13.45;7.65;;;23.30;99.90;;;;;;1923707;74;21128;-76
2021/07/12 10:19:21;;;;;;;10.63;7.17;;;23.40;99.90;;;;;;1922524;74;21032;-76
2021/07/12 10:21:51;;;;;;;12.10;6.42;;;23.50;99.90;;;;;;1914907;74;21019;-73
2021/07/12 10:24:27;;;;;;;10.60;6.15;;;23.60;99.90;;;;;;1922936;74;21093;-76
2021/07/12 10:26:59;;;;;;;11.20;6.08;;;23.70;99.90;;;;;;1920988;74;21092;-73
2021/07/12 10:29:38;;;;;;;6.37;5.62;;;23.70;99.90;;;;;;1919386;72;21104;-74
2021/07/12 10:32:09;;;;;;;7.53;5.67;;;23.80;99.90;;;;;;1923008;74;21085;-75
2021/07/12 10:34:45;;;;;;;6.72;6.03;;;24.00;99.90;;;;;;1914967;74;21090;-75
2021/07/12 10:37:27;;;;;;;6.83;6.20;;;23.90;99.90;;;;;;1926822;72;21140;-76
2021/07/12 10:40:04;;;;;;;11.65;5.92;;;23.90;99.90;;;;;;1921927;72;21219;-72
2021/07/12 10:42:51;;;;;;;7.10;5.72;;;24.00;99.90;;;;;;1920796;72;21126;-71
2021/07/12 10:45:22;;;;;;;6.65;5.78;;;24.00;99.90;;;;;;1918809;74;21630;-72
2021/07/12 10:47:51;;;;;;;6.35;5.50;;;24.20;99.90;;;;;;1923327;72;21086;-73
2021/07/12 10:50:39;;;;;;;6.03;5.42;;;24.10;99.90;;;;;;1921628;74;21493;-72
2021/07/12 10:53:17;;;;;;;9.00;5.65;;;24.00;99.90;;;;;;1925918;72;21102;-72
2021/07/12 10:56:05;;;;;;;6.62;5.80;;;24.00;99.90;;;;;;1925526;72;21950;-72
2021/07/12 10:58:31;;;;;;;6.58;5.80;;;24.00;99.90;;;;;;1924693;74;21567;-72
2021/07/12 11:01:01;;;;;;;9.05;5.35;;;24.00;99.90;;;;;;1926510;72;21106;-73
2021/07/12 11:03:38;;;;;;;7.05;5.30;;;24.10;99.90;;;;;;1920082;72;21086;-72
2021/07/12 11:06:21;;;;;;;6.60;5.40;;;24.10;99.90;;;;;;1922538;74;21130;-72
2021/07/12 11:08:54;;;;;;;5.75;5.15;;;24.20;99.90;;;;;;1923448;72;21101;-73
2021/07/12 11:11:24;;;;;;;8.23;5.95;;;24.20;99.90;;;;;;1918487;74;21651;-73
2021/07/12 11:14:01;;;;;;;10.13;5.60;;;24.20;99.90;;;;;;1918031;74;21140;-72
2021/07/12 11:16:37;;;;;;;10.85;5.25;;;24.30;99.90;;;;;;1924037;72;22147;-72
2021/07/12 11:19:31;;;;;;;8.98;6.15;;;24.50;99.90;;;;;;1919129;73;21982;-72
2021/07/12 11:21:58;;;;;;;8.38;5.70;;;24.50;99.90;;;;;;1924698;74;21171;-72
2021/07/12 11:24:25;;;;;;;8.50;5.62;;;24.40;99.90;;;;;;1896189;72;21102;-69
2021/07/12 11:26:57;;;;;;;6.85;5.40;;;24.40;99.90;;;;;;1917458;72;21505;-71
2021/07/12 11:29:36;;;;;;;10.08;6.62;;;24.20;99.90;;;;;;1916911;72;21617;-70
2021/07/12 11:32:06;;;;;;;9.60;5.90;;;24.30;99.90;;;;;;1922236;72;21141;-75
2021/07/12 11:34:42;;;;;;;7.75;5.97;;;24.30;99.90;;;;;;1924175;74;21141;-71
2021/07/12 11:37:11;;;;;;;7.42;5.35;;;24.40;99.90;;;;;;1921799;72;21116;-71
2021/07/12 11:39:49;;;;;;;8.63;5.70;;;24.40;99.90;;;;;;1916779;74;21134;-72
2021/07/12 11:42:31;;;;;;;6.95;5.83;;;24.50;99.90;;;;;;1914816;72;21672;-72
2021/07/12 11:45:04;;;;;;;6.37;5.75;;;24.50;99.90;;;;;;1920087;74;21122;-71
2021/07/12 11:47:40;;;;;;;6.17;5.58;;;24.70;99.90;;;;;;1922747;74;21653;-73
2021/07/12 11:50:14;;;;;;;9.58;6.10;;;24.80;99.90;;;;;;1919496;72;21115;-67
2021/07/12 11:52:46;;;;;;;6.45;5.30;;;24.90;99.90;;;;;;1928451;74;21153;-70
2021/07/12 11:55:17;;;;;;;5.50;5.00;;;25.00;99.90;;;;;;1929390;72;21125;-69
2021/07/12 11:57:46;;;;;;;5.95;5.35;;;25.10;99.90;;;;;;1924907;72;21132;-70
2021/07/12 12:00:17;;;;;;;10.65;5.60;;;25.20;99.90;;;;;;1910013;74;21148;-71
2021/07/12 12:02:45;;;;;;;5.92;5.33;;;25.10;99.90;;;;;;1920867;72;21088;-70
2021/07/12 12:05:15;;;;;;;6.55;5.70;;;25.10;99.90;;;;;;1918610;72;21823;-70
2021/07/12 12:07:47;;;;;;;9.48;5.35;;;25.30;99.90;;;;;;1915386;74;21007;-70
2021/07/12 12:10:26;;;;;;;5.50;5.00;;;25.20;99.90;;;;;;1923566;72;21145;-72
2021/07/12 12:12:57;;;;;;;5.30;4.80;;;25.30;99.90;;;;;;1918912;74;21603;-72
2021/07/12 12:15:26;;;;;;;6.37;5.20;;;25.40;99.90;;;;;;1928550;72;21019;-72
2021/07/12 12:18:02;;;;;;;7.25;4.80;;;25.30;99.90;;;;;;1927225;74;21014;-73
2021/07/12 12:20:41;;;;;;;5.55;4.45;;;25.30;99.90;;;;;;1921232;74;21199;-73
2021/07/12 12:23:23;;;;;;;5.65;5.05;;;25.30;99.90;;;;;;1915145;74;21578;-77
2021/07/12 12:26:03;;;;;;;9.18;5.35;;;25.40;99.90;;;;;;1929710;72;21454;-73
2021/07/12 12:28:36;;;;;;;5.78;4.92;;;25.60;99.90;;;;;;1926564;72;21031;-74
2021/07/12 12:31:16;;;;;;;6.25;4.72;;;25.70;99.90;;;;;;1921486;72;21133;-73
2021/07/12 12:34:01;;;;;;;5.30;4.80;;;25.70;99.90;;;;;;1927119;74;21759;-71
2021/07/12 12:36:34;;;;;;;6.65;5.03;;;25.60;99.90;;;;;;1918516;72;21082;-73
2021/07/12 12:39:07;;;;;;;9.85;4.95;;;25.60;99.90;;;;;;1916886;73;21590;-72
2021/07/12 12:41:40;;;;;;;5.70;5.20;;;25.70;99.90;;;;;;1917825;74;21124;-72
2021/07/12 12:44:10;;;;;;;12.85;5.12;;;25.60;99.90;;;;;;1919334;74;21175;-74
2021/07/12 12:46:46;;;;;;;7.17;4.65;;;25.60;99.90;;;;;;1918579;74;21094;-73
2021/07/12 12:49:25;;;;;;;5.70;5.17;;;25.50;99.90;;;;;;1911310;74;21101;-76
2021/07/12 12:51:56;;;;;;;5.08;4.50;;;25.40;99.90;;;;;;1937644;74;21101;-76